Time;durP1;ratioP1;P1;durP2;ratioP2;P2;SDS_P1;SDS_P2;PMS_P1;PMS_P2;Temp;Humidity;BMP_temperature;BMP_pressure;BME280_temperature;BME280_humidity;BME280_pressure;Samples;Min_cycle;Max_cycle;Signal;HPM_P1;HPM_P2
2022/10/22 00:01:16;;;;;;;14.40;9.90;;;;;;;10.29;65.55;96525.99;105156;1298;22455;-77
2022/10/22 00:03:47;;;;;;;14.30;8.30;;;;;;;10.31;65.70;96518.77;105174;1304;22493;-76
2022/10/22 00:06:18;;;;;;;13.30;9.70;;;;;;;10.33;65.65;96525.31;105124;1306;22481;-77
2022/10/22 00:08:49;;;;;;;13.20;9.10;;;;;;;10.29;65.49;96532.34;105172;1304;22484;-77
2022/10/22 00:11:21;;;;;;;14.80;9.30;;;;;;;10.23;65.61;96530.05;105201;1304;22489;-77
2022/10/22 00:13:54;;;;;;;14.30;9.50;;;;;;;10.17;65.71;96534.64;105154;1304;24256;-77
2022/10/22 00:16:25;;;;;;;12.80;8.30;;;;;;;10.08;65.98;96527.33;105142;1305;22483;-76
2022/10/22 00:18:56;;;;;;;14.30;8.60;;;;;;;10.02;66.15;96524.69;105153;1306;22473;-77
2022/10/22 00:21:29;;;;;;;14.70;10.70;;;;;;;10.02;66.33;96527.23;105179;1303;24279;-77
2022/10/22 00:24:00;;;;;;;13.00;9.40;;;;;;;9.99;66.45;96526.88;105159;1279;25230;-77
2022/10/22 00:26:31;;;;;;;17.80;11.20;;;;;;;9.98;66.65;96530.16;105067;1304;27077;-77
2022/10/22 00:29:02;;;;;;;14.70;9.70;;;;;;;10.01;66.51;96523.85;105081;1306;25897;-76
2022/10/22 00:31:33;;;;;;;13.40;9.50;;;;;;;10.01;66.50;96526.55;105079;1300;22483;-76
2022/10/22 00:34:04;;;;;;;15.40;10.00;;;;;;;9.99;66.56;96524.90;105073;1291;22491;-76
2022/10/22 00:36:35;;;;;;;13.00;9.00;;;;;;;9.94;66.78;96521.70;105043;1306;32222;-77
2022/10/22 00:39:06;;;;;;;15.60;9.70;;;;;;;9.98;66.96;96522.16;105073;1282;24236;-76
2022/10/22 00:41:37;;;;;;;13.30;9.20;;;;;;;9.98;67.06;96515.64;105071;1291;22482;-76
2022/10/22 00:44:08;;;;;;;12.00;8.50;;;;;;;10.00;66.89;96512.58;105079;1306;22655;-76
2022/10/22 00:46:39;;;;;;;14.00;10.10;;;;;;;10.02;67.11;96507.41;105040;1298;26136;-77
2022/10/22 00:49:10;;;;;;;17.00;10.30;;;;;;;10.05;67.06;96506.80;105091;1291;22470;-77
2022/10/22 00:51:41;;;;;;;15.30;9.70;;;;;;;10.03;67.28;96498.82;105063;1292;24837;-76
2022/10/22 00:54:13;;;;;;;15.30;10.00;;;;;;;10.05;67.27;96503.26;105093;1300;22769;-76
2022/10/22 00:56:44;;;;;;;14.50;9.70;;;;;;;10.04;67.16;96509.41;105079;1306;24276;-76
2022/10/22 00:59:16;;;;;;;14.30;8.90;;;;;;;10.04;67.30;96499.50;105126;1304;22481;-77
2022/10/22 01:01:49;;;;;;;16.10;8.70;;;;;;;10.06;67.43;96503.02;105162;1294;22530;-77
2022/10/22 01:04:20;;;;;;;12.90;8.60;;;;;;;10.06;67.54;96502.66;105186;1282;22477;-76
2022/10/22 01:06:51;;;;;;;12.70;9.00;;;;;;;10.07;67.55;96497.56;105098;1290;25315;-76
2022/10/22 01:09:31;;;;;;;14.10;8.90;;;;;;;10.08;67.58;96495.27;105207;1304;22467;-77
2022/10/22 01:12:15;;;;;;;15.90;9.70;;;;;;;10.06;67.72;96492.43;105226;1304;22426;-76
2022/10/22 01:15:03;;;;;;;12.70;8.70;;;;;;;10.10;68.19;96496.11;105210;1285;22498;-76
2022/10/22 01:17:41;;;;;;;13.30;8.40;;;;;;;10.19;68.33;96501.61;105044;1305;22657;-77
2022/10/22 01:20:29;;;;;;;13.90;9.40;;;;;;;10.23;68.41;96497.00;105088;1298;22455;-76
2022/10/22 01:23:11;;;;;;;13.30;9.10;;;;;;;10.28;68.26;96504.01;105109;1306;22517;-76
2022/10/22 01:25:51;;;;;;;15.70;9.10;;;;;;;10.27;68.34;96501.30;105042;1297;25409;-77
2022/10/22 01:28:26;;;;;;;;;;;;;;;10.26;68.40;96510.25;105171;1305;22449;-77
2022/10/22 01:31:00;;;;;;;15.20;9.70;;;;;;;10.21;68.34;96511.88;105206;1298;22471;-77
2022/10/22 01:33:33;;;;;;;17.10;9.50;;;;;;;10.16;68.51;96508.11;105035;1290;178025;-77
2022/10/22 01:36:07;;;;;;;18.00;9.30;;;;;;;10.17;68.84;96507.24;105115;1282;25228;-77
2022/10/22 01:38:40;;;;;;;14.70;9.10;;;;;;;10.17;68.92;96504.48;105130;1298;22466;-77
2022/10/22 01:41:11;;;;;;;16.20;10.20;;;;;;;10.15;68.68;96506.63;105137;1303;22462;-77
2022/10/22 01:43:42;;;;;;;15.10;9.20;;;;;;;10.12;68.69;96498.48;105171;1304;22492;-77
2022/10/22 01:46:15;;;;;;;15.70;9.20;;;;;;;10.09;68.72;96503.11;105164;1289;25378;-77
2022/10/22 01:49:02;;;;;;;14.00;8.50;;;;;;;10.03;68.82;96504.48;105185;1304;22486;-77
2022/10/22 01:51:47;;;;;;;15.40;8.40;;;;;;;9.98;68.87;96497.48;105190;1288;23444;-76
2022/10/22 01:54:31;;;;;;;18.40;10.20;;;;;;;9.94;69.29;96490.67;105186;1304;22466;-77
2022/10/22 01:57:14;;;;;;;16.60;10.30;;;;;;;9.89;69.25;96492.63;105098;1304;23974;-77
2022/10/22 01:59:55;;;;;;;15.40;9.80;;;;;;;9.87;69.49;96492.76;105163;1304;25841;-77
2022/10/22 02:02:35;;;;;;;14.20;9.10;;;;;;;9.84;69.38;96492.81;105224;1297;22583;-78
2022/10/22 02:05:07;;;;;;;;;;;;;;;9.80;69.56;96491.40;105192;1304;23823;-77
2022/10/22 02:07:43;;;;;;;15.10;9.10;;;;;;;9.79;69.73;96483.01;105127;1281;26081;-77
2022/10/22 02:10:16;;;;;;;15.70;8.20;;;;;;;9.76;69.67;96477.42;105159;1298;22506;-77
2022/10/22 02:12:51;;;;;;;16.20;10.90;;;;;;;9.75;69.95;96473.66;105190;1289;22510;-77
2022/10/22 02:15:25;;;;;;;17.20;10.20;;;;;;;9.73;69.84;96474.53;105215;1297;22466;-77
2022/10/22 02:17:59;;;;;;;14.10;10.20;;;;;;;9.74;70.08;96471.56;105186;1304;31161;-77
2022/10/22 02:20:35;;;;;;;16.90;10.40;;;;;;;9.72;70.03;96469.19;105159;1297;24260;-77
2022/10/22 02:23:08;;;;;;;13.20;7.70;;;;;;;9.68;70.08;96471.85;105162;1282;22469;-76
2022/10/22 02:25:42;;;;;;;13.40;9.50;;;;;;;9.68;70.42;96466.77;105075;1304;22904;-77
2022/10/22 02:28:17;;;;;;;14.40;9.60;;;;;;;9.68;70.53;96466.61;105190;1303;25214;-77
2022/10/22 02:30:53;;;;;;;15.30;9.50;;;;;;;9.68;70.40;96468.61;105203;1288;24240;-77
2022/10/22 02:33:29;;;;;;;13.30;9.10;;;;;;;9.68;70.51;96470.15;105193;1291;25261;-77
2022/10/22 02:36:02;;;;;;;16.10;9.50;;;;;;;9.68;70.66;96467.45;105107;1304;24320;-77
2022/10/22 02:38:34;;;;;;;14.90;10.30;;;;;;;9.70;70.62;96471.83;105107;1282;22511;-77
2022/10/22 02:41:06;;;;;;;16.60;9.90;;;;;;;9.71;70.56;96473.05;105112;1298;22591;-77
2022/10/22 02:43:44;;;;;;;16.60;9.60;;;;;;;9.72;70.68;96464.64;105116;1306;22868;-77
2022/10/22 02:46:15;;;;;;;15.80;9.20;;;;;;;9.76;70.88;96472.60;105002;1281;22611;-77
2022/10/22 02:48:46;;;;;;;14.80;9.70;;;;;;;9.73;71.04;96470.52;105073;1298;22513;-77
2022/10/22 02:51:17;;;;;;;15.30;9.30;;;;;;;9.69;71.24;96464.42;105095;1292;23886;-77
2022/10/22 02:53:48;;;;;;;14.40;10.00;;;;;;;9.66;71.44;96464.56;105098;1298;22737;-77
2022/10/22 02:56:19;;;;;;;15.10;10.10;;;;;;;9.61;71.56;96463.13;105042;1305;22585;-77
2022/10/22 02:58:52;;;;;;;16.30;9.70;;;;;;;9.54;71.68;96463.11;105079;1291;22466;-77
2022/10/22 03:01:23;;;;;;;16.40;9.50;;;;;;;9.48;71.85;96465.10;105076;1306;25404;-77
2022/10/22 03:03:54;;;;;;;16.00;9.80;;;;;;;9.44;72.09;96473.02;105101;1306;22507;-77
2022/10/22 03:06:25;;;;;;;14.40;8.40;;;;;;;9.37;72.27;96483.15;105051;1285;27660;-77
2022/10/22 03:08:57;;;;;;;18.90;8.50;;;;;;;9.36;72.83;96480.15;105054;1304;22491;-77
2022/10/22 03:11:28;;;;;;;13.60;7.80;;;;;;;9.43;73.02;96477.95;105085;1300;25454;-77
2022/10/22 03:14:02;;;;;;;13.70;8.30;;;;;;;9.50;73.01;96472.92;105081;1306;25307;-77
2022/10/22 03:16:33;;;;;;;14.10;8.80;;;;;;;9.55;73.01;96468.17;105113;1306;22454;-77
2022/10/22 03:19:04;;;;;;;13.70;7.90;;;;;;;9.57;72.86;96470.81;105135;1291;25259;-77
2022/10/22 03:21:39;;;;;;;15.80;9.20;;;;;;;9.53;72.92;96471.68;105173;1298;22532;-77
2022/10/22 03:24:14;;;;;;;13.30;8.50;;;;;;;9.53;72.94;96466.02;105153;1306;24264;-77
2022/10/22 03:26:50;;;;;;;17.00;9.60;;;;;;;9.52;72.88;96459.41;105138;1306;23386;-77
2022/10/22 03:29:28;;;;;;;14.50;9.80;;;;;;;9.50;72.87;96465.61;105091;1298;22597;-77
2022/10/22 03:31:59;;;;;;;15.70;8.90;;;;;;;9.47;73.17;96472.63;105111;1306;22490;-77
2022/10/22 03:34:30;;;;;;;15.60;9.40;;;;;;;9.48;73.38;96467.92;105079;1291;22629;-77
2022/10/22 03:37:02;;;;;;;16.20;8.10;;;;;;;9.52;73.40;96472.74;105121;1291;23190;-77
2022/10/22 03:39:35;;;;;;;20.00;10.00;;;;;;;9.52;73.35;96480.00;105114;1305;24379;-77
2022/10/22 03:42:09;;;;;;;12.70;7.70;;;;;;;9.51;73.31;96473.13;105176;1304;22465;-77
2022/10/22 03:44:40;;;;;;;14.70;9.10;;;;;;;9.55;73.41;96477.75;105205;1297;22489;-77
2022/10/22 03:47:11;;;;;;;14.70;9.60;;;;;;;9.57;73.44;96474.63;105061;1306;43635;-76
2022/10/22 03:49:42;;;;;;;16.40;9.70;;;;;;;9.57;73.32;96476.05;105084;1283;22479;-77
2022/10/22 03:52:15;;;;;;;16.20;9.90;;;;;;;9.53;73.36;96469.98;105104;1290;22497;-77
2022/10/22 03:54:46;;;;;;;13.10;7.70;;;;;;;9.49;73.36;96471.23;105096;1305;22461;-77
2022/10/22 03:57:17;;;;;;;15.30;9.20;;;;;;;9.46;73.68;96466.60;105161;1293;22476;-77
2022/10/22 03:59:49;;;;;;;16.00;10.70;;;;;;;9.44;73.66;96462.86;105213;1297;22553;-77
2022/10/22 04:02:20;;;;;;;14.00;8.90;;;;;;;9.43;73.87;96450.54;105175;1305;22469;-77
2022/10/22 04:04:52;;;;;;;16.30;9.20;;;;;;;9.41;73.88;96456.04;105204;1304;22469;-77
2022/10/22 04:07:23;;;;;;;12.10;7.60;;;;;;;9.41;74.19;96461.86;105037;1304;25270;-77
2022/10/22 04:09:57;;;;;;;19.10;9.80;;;;;;;9.45;74.27;96463.96;105129;1291;22477;-77
2022/10/22 04:12:28;;;;;;;14.00;6.30;;;;;;;9.49;74.20;96465.58;105114;1298;22625;-77
2022/10/22 04:14:59;;;;;;;15.30;9.60;;;;;;;9.56;74.20;96461.72;105099;1289;22596;-77
2022/10/22 04:17:35;;;;;;;14.60;8.90;;;;;;;9.61;74.04;96454.07;105126;1304;24365;-77
2022/10/22 04:20:10;;;;;;;16.80;10.50;;;;;;;9.63;73.94;96457.91;105227;1304;22509;-77
2022/10/22 04:22:41;;;;;;;13.60;9.80;;;;;;;9.62;73.80;96455.70;105231;1296;22457;-77
2022/10/22 04:25:13;;;;;;;17.30;9.30;;;;;;;9.60;73.78;96445.98;105205;1291;22466;-77
2022/10/22 04:27:44;;;;;;;17.00;8.40;;;;;;;9.64;73.81;96439.33;105145;1284;27873;-77
2022/10/22 04:30:15;;;;;;;13.90;8.40;;;;;;;9.61;73.81;96431.84;105173;1306;25615;-77
2022/10/22 04:32:47;;;;;;;14.30;9.00;;;;;;;9.60;73.89;96427.88;105200;1304;22485;-77
2022/10/22 04:35:18;;;;;;;16.30;8.50;;;;;;;9.57;73.91;96415.51;105205;1304;23721;-77
2022/10/22 04:37:49;;;;;;;15.10;8.90;;;;;;;9.60;74.08;96408.52;105175;1304;22489;-77
2022/10/22 04:40:20;;;;;;;14.10;9.70;;;;;;;9.62;73.81;96413.41;105129;1284;25271;-77
2022/10/22 04:42:51;;;;;;;14.60;8.90;;;;;;;9.54;73.60;96413.14;105204;1305;22476;-77
2022/10/22 04:45:22;;;;;;;14.30;9.50;;;;;;;9.48;73.66;96414.94;105171;1281;25324;-77
2022/10/22 04:47:56;;;;;;;14.10;10.00;;;;;;;9.48;73.96;96423.14;105153;1304;22791;-77
2022/10/22 04:50:28;;;;;;;15.60;9.40;;;;;;;9.49;73.89;96427.00;105201;1304;22485;-77
2022/10/22 04:52:59;;;;;;;13.70;9.50;;;;;;;9.49;74.02;96424.71;105252;1290;22472;-77
2022/10/22 04:55:30;;;;;;;16.40;8.60;;;;;;;9.52;74.05;96425.54;105097;1304;24208;-77
2022/10/22 04:58:01;;;;;;;13.80;9.00;;;;;;;9.53;74.13;96434.69;105104;1306;22497;-77
2022/10/22 05:00:35;;;;;;;17.00;9.80;;;;;;;9.53;74.08;96445.27;105151;1281;24284;-77
2022/10/22 05:03:06;;;;;;;13.70;9.40;;;;;;;9.46;74.02;96455.96;105113;1273;25354;-77
2022/10/22 05:05:37;;;;;;;16.40;10.20;;;;;;;9.38;74.03;96465.54;105055;1294;27731;-77
2022/10/22 05:08:08;;;;;;;16.30;9.90;;;;;;;9.27;73.99;96460.52;105106;1281;22496;-77
2022/10/22 05:10:42;;;;;;;13.50;9.40;;;;;;;9.21;74.13;96462.67;105141;1297;22457;-77
2022/10/22 05:13:13;;;;;;;13.50;9.00;;;;;;;9.15;74.55;96463.76;105103;1298;22466;-77
2022/10/22 05:15:44;;;;;;;14.80;9.70;;;;;;;9.10;74.71;96471.29;105040;1306;22660;-77
2022/10/22 05:18:16;;;;;;;14.30;9.20;;;;;;;9.05;74.96;96478.40;105052;1291;22472;-77
2022/10/22 05:20:47;;;;;;;16.30;9.90;;;;;;;9.12;75.35;96483.44;105087;1305;22533;-77
2022/10/22 05:23:19;;;;;;;14.50;9.40;;;;;;;9.18;75.15;96489.67;105096;1277;22472;-77
2022/10/22 05:25:50;;;;;;;14.50;8.90;;;;;;;9.16;75.15;96486.35;105031;1306;22477;-77
2022/10/22 05:28:21;;;;;;;15.90;9.70;;;;;;;9.17;75.16;96478.92;105086;1305;22493;-77
2022/10/22 05:30:57;;;;;;;16.50;10.00;;;;;;;9.17;75.12;96479.25;105103;1299;25650;-77
2022/10/22 05:33:29;;;;;;;15.00;9.60;;;;;;;9.16;75.11;96478.45;105120;1298;25392;-77
2022/10/22 05:36:01;;;;;;;13.40;9.00;;;;;;;9.17;75.09;96476.92;105088;1305;26516;-77
2022/10/22 05:38:33;;;;;;;14.30;8.40;;;;;;;9.22;75.33;96474.61;105186;1303;25225;-77
2022/10/22 05:41:08;;;;;;;15.20;8.90;;;;;;;9.30;75.48;96472.63;105112;1291;22491;-77
2022/10/22 05:43:39;;;;;;;15.90;10.40;;;;;;;9.37;75.36;96471.36;105179;1304;22486;-77
2022/10/22 05:46:13;;;;;;;14.30;8.80;;;;;;;9.42;75.30;96469.48;105112;1301;22467;-77
2022/10/22 05:48:48;;;;;;;16.30;9.20;;;;;;;9.41;75.29;96472.12;105075;1306;24268;-77
2022/10/22 05:51:20;;;;;;;12.10;7.20;;;;;;;9.54;75.31;96480.79;105070;1306;25327;-78
2022/10/22 05:53:55;;;;;;;12.80;9.10;;;;;;;9.88;74.97;96481.51;105129;1284;25264;-77
2022/10/22 05:56:28;;;;;;;14.80;9.70;;;;;;;10.26;73.94;96479.99;105100;1305;22488;-77
2022/10/22 05:59:01;;;;;;;13.50;8.40;;;;;;;10.60;72.96;96479.26;105203;1304;24013;-77
2022/10/22 06:01:34;;;;;;;15.00;8.20;;;;;;;10.74;72.08;96471.86;105182;1297;22484;-77
2022/10/22 06:04:10;;;;;;;15.00;8.50;;;;;;;10.56;71.59;96472.83;105201;1305;22853;-77
2022/10/22 06:06:44;;;;;;;13.80;9.70;;;;;;;10.39;71.61;96467.96;105042;1304;25150;-77
2022/10/22 06:09:20;;;;;;;13.00;8.90;;;;;;;10.32;71.88;96467.82;105196;1294;23981;-77
2022/10/22 06:11:51;;;;;;;15.40;9.70;;;;;;;10.28;72.01;96471.52;105168;1304;22736;-77
2022/10/22 06:14:27;;;;;;;13.00;8.70;;;;;;;10.21;72.05;96469.44;105196;1291;22464;-77
2022/10/22 06:17:01;;;;;;;13.80;9.20;;;;;;;10.22;72.19;96473.20;105124;1282;22500;-77
2022/10/22 06:19:32;;;;;;;13.80;8.90;;;;;;;10.53;72.24;96477.16;105106;1306;22516;-77
2022/10/22 06:22:05;;;;;;;14.10;8.70;;;;;;;11.22;71.62;96479.33;105083;1306;25468;-78
2022/10/22 06:24:36;;;;;;;14.60;9.70;;;;;;;11.97;70.41;96485.31;105062;1306;22517;-77
2022/10/22 06:27:08;;;;;;;13.30;9.60;;;;;;;12.69;69.18;96490.90;105060;1306;23983;-78
2022/10/22 06:29:39;;;;;;;14.00;8.30;;;;;;;13.22;66.88;96486.55;105050;1281;22472;-77
2022/10/22 06:32:10;;;;;;;13.10;8.70;;;;;;;13.58;65.82;96489.91;105078;1298;22484;-77
2022/10/22 06:34:42;;;;;;;12.70;8.20;;;;;;;13.93;64.13;96482.08;105091;1291;25010;-77
2022/10/22 06:37:14;;;;;;;12.30;8.40;;;;;;;14.02;62.49;96485.48;105085;1284;22525;-77
2022/10/22 06:39:45;;;;;;;14.30;8.50;;;;;;;14.11;61.24;96481.43;105123;1304;22677;-78
2022/10/22 06:42:24;;;;;;;12.90;8.10;;;;;;;14.15;60.88;96488.85;105117;1294;22470;-77
2022/10/22 06:44:55;;;;;;;12.20;8.20;;;;;;;14.29;60.23;96490.35;105122;1298;22471;-78
2022/10/22 06:47:27;;;;;;;11.30;8.10;;;;;;;14.51;60.19;96493.80;105043;1291;22967;-78
2022/10/22 06:49:58;;;;;;;11.00;8.00;;;;;;;14.81;59.73;96504.82;105117;1306;22469;-78
2022/10/22 06:52:31;;;;;;;11.10;7.20;;;;;;;15.08;59.32;96504.27;105099;1306;22842;-78
2022/10/22 06:55:02;;;;;;;11.70;7.50;;;;;;;15.54;59.07;96501.67;105118;1306;22475;-79
2022/10/22 06:57:34;;;;;;;10.40;7.90;;;;;;;16.00;58.19;96504.05;105047;1297;25238;-78
2022/10/22 07:00:09;;;;;;;11.60;8.90;;;;;;;16.39;57.73;96504.55;105129;1294;26449;-78
2022/10/22 07:02:40;;;;;;;10.30;8.20;;;;;;;16.79;57.17;96501.16;105155;1306;25393;-79
2022/10/22 07:05:12;;;;;;;10.60;8.00;;;;;;;16.87;56.18;96499.54;105116;1297;22490;-78
2022/10/22 07:07:44;;;;;;;11.40;7.80;;;;;;;16.38;55.82;96497.37;105043;1306;22480;-79
2022/10/22 07:10:15;;;;;;;12.40;7.70;;;;;;;15.76;56.52;96503.33;105114;1306;25267;-78
2022/10/22 07:12:46;;;;;;;9.70;7.70;;;;;;;15.63;57.32;96506.19;105089;1304;22472;-79
2022/10/22 07:15:19;;;;;;;11.00;7.90;;;;;;;16.11;56.48;96514.84;105110;1306;22483;-78
2022/10/22 07:17:50;;;;;;;13.50;8.60;;;;;;;16.03;55.52;96509.94;105058;1291;26446;-78
2022/10/22 07:20:21;;;;;;;11.50;8.00;;;;;;;15.58;55.61;96513.77;105127;1306;22549;-78
2022/10/22 07:22:53;;;;;;;10.80;7.40;;;;;;;15.66;55.84;96519.07;105086;1305;23871;-79
2022/10/22 07:25:25;;;;;;;12.50;8.40;;;;;;;15.17;56.08;96519.75;105078;1291;22469;-78
2022/10/22 07:27:56;;;;;;;12.20;8.50;;;;;;;15.00;56.73;96521.50;105052;1306;33463;-78
2022/10/22 07:30:28;;;;;;;13.70;7.80;;;;;;;14.79;56.79;96522.23;105096;1295;22546;-78
2022/10/22 07:32:59;;;;;;;12.90;8.40;;;;;;;14.55;57.61;96526.54;105082;1306;22512;-78
2022/10/22 07:35:30;;;;;;;13.20;8.30;;;;;;;14.37;57.79;96532.77;105104;1306;22472;-78
2022/10/22 07:38:02;;;;;;;13.80;7.60;;;;;;;14.13;58.63;96541.15;105122;1306;22485;-79
2022/10/22 07:40:33;;;;;;;12.50;8.30;;;;;;;13.84;59.07;96536.59;105117;1306;22598;-78
2022/10/22 07:43:05;;;;;;;12.00;8.10;;;;;;;13.79;60.25;96536.92;105105;1305;23043;-79
2022/10/22 07:45:36;;;;;;;12.90;8.50;;;;;;;14.50;59.70;96522.33;105064;1291;24253;-78
2022/10/22 07:48:08;;;;;;;12.70;8.50;;;;;;;14.19;59.29;96518.36;105088;1291;22496;-78
2022/10/22 07:50:40;;;;;;;15.10;9.50;;;;;;;13.96;60.02;96523.86;105075;1283;22483;-78
2022/10/22 07:53:11;;;;;;;13.40;8.50;;;;;;;13.82;60.55;96519.42;105093;1290;24471;-78
2022/10/22 07:55:43;;;;;;;12.50;7.40;;;;;;;13.74;61.11;96504.30;105046;1306;26523;-79
2022/10/22 07:58:14;;;;;;;15.50;9.30;;;;;;;13.65;61.19;96499.86;105168;1306;22647;-78
2022/10/22 08:00:46;;;;;;;13.50;8.50;;;;;;;13.80;61.68;96499.59;105189;1291;24279;-78
2022/10/22 08:03:18;;;;;;;13.90;9.10;;;;;;;14.09;61.47;96497.27;105178;1304;25292;-78
2022/10/22 08:05:52;;;;;;;17.40;9.40;;;;;;;14.34;61.01;96500.52;105125;1291;25260;-78
2022/10/22 08:08:23;;;;;;;11.10;7.80;;;;;;;14.43;60.92;96505.98;105087;1300;22495;-78
2022/10/22 08:10:57;;;;;;;14.20;9.40;;;;;;;14.45;60.56;96502.80;105144;1306;24292;-78
2022/10/22 08:13:30;;;;;;;10.70;7.20;;;;;;;14.48;60.88;96510.04;105081;1305;25022;-79
2022/10/22 08:16:02;;;;;;;10.70;8.00;;;;;;;14.42;60.38;96512.52;105069;1299;25216;-78
2022/10/22 08:18:33;;;;;;;13.70;8.80;;;;;;;14.20;60.38;96504.47;105157;1306;24250;-79
2022/10/22 08:21:05;;;;;;;13.10;8.10;;;;;;;14.02;60.84;96501.96;105186;1306;23787;-79
2022/10/22 08:23:37;;;;;;;11.70;7.90;;;;;;;14.03;61.32;96503.06;105162;1291;22481;-79
2022/10/22 08:26:09;;;;;;;12.90;8.70;;;;;;;14.02;61.56;96506.60;105089;1298;28888;-78
2022/10/22 08:28:40;;;;;;;13.70;8.60;;;;;;;14.04;61.84;96502.98;105167;1305;22597;-78
2022/10/22 08:31:12;;;;;;;13.20;8.20;;;;;;;14.14;62.28;96503.65;105208;1305;22936;-79
2022/10/22 08:33:44;;;;;;;13.70;8.50;;;;;;;14.28;61.80;96516.77;105149;1290;22487;-78
2022/10/22 08:36:15;;;;;;;11.60;7.70;;;;;;;14.34;61.74;96523.70;105141;1305;22482;-78
2022/10/22 08:38:46;;;;;;;14.40;8.60;;;;;;;14.35;61.69;96531.80;105213;1305;22501;-79
2022/10/22 08:41:19;;;;;;;10.90;7.40;;;;;;;14.22;61.85;96542.16;105237;1306;22473;-78
2022/10/22 08:44:05;;;;;;;12.40;7.50;;;;;;;14.16;62.51;96543.95;105201;1288;22464;-78
2022/10/22 08:46:51;;;;;;;11.60;7.40;;;;;;;14.27;62.98;96546.21;105123;1285;23794;-78
2022/10/22 08:49:27;;;;;;;12.10;7.90;;;;;;;14.44;63.01;96545.46;105217;1305;22478;-78
2022/10/22 08:51:59;;;;;;;11.00;7.80;;;;;;;14.56;62.94;96548.70;105180;1288;22476;-78
2022/10/22 08:54:40;;;;;;;13.00;8.40;;;;;;;14.62;62.68;96552.39;105200;1298;22547;-78
2022/10/22 08:57:24;;;;;;;13.20;7.50;;;;;;;14.77;62.76;96549.16;105107;1305;23870;-79
2022/10/22 09:00:02;;;;;;;10.50;6.70;;;;;;;14.81;62.24;96557.73;105133;1303;22475;-79
2022/10/22 09:02:40;;;;;;;12.90;7.70;;;;;;;14.65;61.85;96557.32;105158;1306;22608;-78
2022/10/22 09:05:32;;;;;;;12.50;8.00;;;;;;;14.53;62.30;96558.22;105155;1306;24243;-79
2022/10/22 09:08:05;;;;;;;12.10;7.90;;;;;;;14.45;62.46;96553.92;105170;1306;35602;-78
2022/10/22 09:10:40;;;;;;;11.60;8.10;;;;;;;14.39;62.43;96555.33;105123;1298;22471;-78
2022/10/22 09:13:16;;;;;;;11.10;7.80;;;;;;;14.32;62.59;96551.76;105099;1306;23730;-78
2022/10/22 09:15:55;;;;;;;15.70;8.90;;;;;;;14.17;62.94;96558.56;105044;1300;22726;-78
2022/10/22 09:18:36;;;;;;;12.50;7.80;;;;;;;14.06;63.25;96564.15;105111;1303;22489;-78
2022/10/22 09:21:19;;;;;;;13.90;9.00;;;;;;;13.90;63.38;96559.71;105154;1306;22471;-78
2022/10/22 09:24:02;;;;;;;11.20;8.80;;;;;;;13.78;63.79;96558.47;105095;1298;22466;-78
2022/10/22 09:26:36;;;;;;;13.20;8.90;;;;;;;13.68;64.09;96562.37;105038;1294;24235;-78
2022/10/22 09:29:13;;;;;;;14.30;9.30;;;;;;;13.64;64.58;96564.83;105150;1291;22461;-78
2022/10/22 09:31:44;;;;;;;13.70;8.90;;;;;;;13.67;64.88;96563.87;105121;1281;22477;-78
2022/10/22 09:34:19;;;;;;;12.40;8.80;;;;;;;13.69;64.99;96572.52;105170;1299;24289;-78
2022/10/22 09:36:59;;;;;;;15.00;9.60;;;;;;;13.63;65.06;96579.33;105081;1305;25417;-78
2022/10/22 09:39:35;;;;;;;13.10;7.90;;;;;;;13.56;65.12;96568.30;105197;1291;25689;-78
2022/10/22 09:42:07;;;;;;;15.30;8.60;;;;;;;13.49;65.48;96556.39;105156;1305;22706;-78
2022/10/22 09:44:40;;;;;;;14.10;9.70;;;;;;;13.49;65.61;96546.59;105129;1282;22473;-79
2022/10/22 09:47:29;;;;;;;16.60;9.70;;;;;;;13.51;65.80;96542.83;105133;1282;26886;-78
2022/10/22 09:50:16;;;;;;;14.70;10.00;;;;;;;13.56;65.90;96530.49;105142;1291;23827;-79
2022/10/22 09:52:54;;;;;;;15.10;9.40;;;;;;;13.61;65.98;96538.79;105120;1306;22482;-78
2022/10/22 09:55:27;;;;;;;15.10;10.00;;;;;;;13.61;65.97;96546.67;105092;1298;26540;-78
2022/10/22 09:58:00;;;;;;;13.40;9.20;;;;;;;13.58;66.24;96545.67;105065;1280;37201;-78
2022/10/22 10:00:33;;;;;;;17.40;10.50;;;;;;;13.55;66.26;96547.54;105081;1282;22460;-78
2022/10/22 10:03:06;;;;;;;16.60;10.90;;;;;;;13.53;66.52;96547.65;105123;1306;22522;-79
2022/10/22 10:05:42;;;;;;;15.20;10.10;;;;;;;13.52;66.55;96546.66;105099;1284;22534;-78
2022/10/22 10:08:17;;;;;;;15.90;10.10;;;;;;;13.52;66.77;96544.31;105193;1297;22478;-79
2022/10/22 10:10:52;;;;;;;15.80;8.80;;;;;;;13.53;66.95;96543.02;105193;1304;22480;-79
2022/10/22 10:13:43;;;;;;;14.20;10.20;;;;;;;13.54;67.03;96540.92;105203;1291;22467;-79
2022/10/22 10:16:30;;;;;;;13.60;9.50;;;;;;;13.52;67.40;96543.15;105092;1290;25272;-78
2022/10/22 10:19:17;;;;;;;15.50;9.70;;;;;;;13.50;67.29;96538.91;105104;1297;22493;-78
2022/10/22 10:22:01;;;;;;;16.10;9.20;;;;;;;13.47;67.36;96536.20;105091;1296;23953;-78
2022/10/22 10:24:45;;;;;;;14.40;10.20;;;;;;;13.41;67.57;96533.58;105133;1306;25355;-78
2022/10/22 10:27:25;;;;;;;16.30;11.20;;;;;;;13.37;67.67;96537.63;105067;1287;34107;-78
2022/10/22 10:30:03;;;;;;;14.70;10.50;;;;;;;13.35;67.95;96536.29;105074;1306;22464;-78
2022/10/22 10:32:51;;;;;;;19.50;12.80;;;;;;;13.32;68.01;96526.96;105093;1291;23199;-78
2022/10/22 10:35:27;;;;;;;16.80;11.10;;;;;;;13.30;68.13;96525.31;105124;1305;25288;-78
2022/10/22 10:38:15;;;;;;;13.90;9.20;;;;;;;13.32;68.29;96536.58;105121;1304;31913;-78
2022/10/22 10:40:51;;;;;;;15.30;9.90;;;;;;;13.31;68.18;96543.02;105082;1306;22491;-78
2022/10/22 10:43:30;;;;;;;12.70;9.60;;;;;;;13.27;68.19;96541.67;105092;1306;22468;-78
2022/10/22 10:46:10;;;;;;;14.20;9.40;;;;;;;13.27;68.48;96547.37;105060;1306;25350;-78
2022/10/22 10:48:54;;;;;;;15.10;9.90;;;;;;;13.28;68.31;96545.21;105103;1303;22013;-78
2022/10/22 10:51:42;;;;;;;14.50;10.10;;;;;;;13.28;68.30;96547.47;105099;1287;22464;-78
2022/10/22 10:54:40;;;;;;;15.00;9.60;;;;;;;13.27;68.31;96544.98;105144;1306;22482;-78
2022/10/22 10:57:22;;;;;;;14.70;10.50;;;;;;;13.28;68.61;96552.11;105076;1298;25428;-78
2022/10/22 11:00:03;;;;;;;17.40;11.10;;;;;;;13.30;68.63;96554.91;105097;1296;22577;-78
2022/10/22 11:03:05;;;;;;;15.70;10.40;;;;;;;13.32;68.84;96553.98;105111;1305;22527;-78
2022/10/22 11:05:42;;;;;;;16.10;10.00;;;;;;;13.32;68.86;96549.61;104950;1297;23932;-77
2022/10/22 11:08:19;;;;;;;16.70;11.30;;;;;;;13.33;69.04;96551.34;105184;1277;22459;-78
2022/10/22 11:10:54;;;;;;;15.60;11.10;;;;;;;13.32;69.41;96552.21;105165;1288;25003;-78
2022/10/22 11:13:30;;;;;;;14.80;11.00;;;;;;;13.33;69.52;96553.25;105167;1298;22505;-78
2022/10/22 11:16:10;;;;;;;14.70;10.70;;;;;;;13.34;69.78;96553.45;105146;1306;22702;-77
2022/10/22 11:18:47;;;;;;;15.10;10.00;;;;;;;13.35;69.92;96555.71;105147;1281;26702;-78
2022/10/22 11:21:27;;;;;;;14.40;10.20;;;;;;;13.36;69.93;96557.62;105196;1301;22542;-78
2022/10/22 11:24:05;;;;;;;17.10;11.80;;;;;;;13.34;70.27;96559.42;105196;1289;22486;-78
2022/10/22 11:26:43;;;;;;;16.30;11.30;;;;;;;13.31;70.44;96561.06;105164;1305;22506;-78
2022/10/22 11:29:21;;;;;;;17.30;11.40;;;;;;;13.30;70.76;96558.42;105236;1306;22470;-78
2022/10/22 11:31:55;;;;;;;15.60;10.90;;;;;;;13.29;70.95;96549.89;105173;1295;25279;-78
2022/10/22 11:34:32;;;;;;;17.80;12.40;;;;;;;13.28;71.36;96553.80;105180;1305;22468;-78
2022/10/22 11:37:05;;;;;;;16.90;11.30;;;;;;;13.23;71.65;96553.89;105177;1294;22453;-77
2022/10/22 11:39:42;;;;;;;18.50;12.70;;;;;;;13.19;71.86;96555.45;105179;1305;22620;-78
2022/10/22 11:42:20;;;;;;;18.10;12.60;;;;;;;13.16;72.02;96554.22;105231;1299;22547;-77
2022/10/22 11:45:02;;;;;;;18.10;13.10;;;;;;;13.15;72.19;96554.93;105167;1294;22553;-78
2022/10/22 11:47:35;;;;;;;21.30;14.00;;;;;;;13.10;72.29;96553.05;105097;1302;23870;-78
2022/10/22 11:50:21;;;;;;;22.80;14.10;;;;;;;13.07;72.60;96549.31;105208;1299;22458;-77
2022/10/22 11:53:03;;;;;;;18.30;13.00;;;;;;;13.02;72.94;96547.61;105193;1289;25267;-77